sensor_id;sensor_type;location;lat;lon;timestamp;P1;durP1;ratioP1;P2;durP2;ratioP2
33285;SDS011;19656;50.096;20.014;2024-02-15T00:02:56;52.00;;;25.70;;
33285;SDS011;19656;50.096;20.014;2024-02-15T00:08:01;47.20;;;24.30;;
33285;SDS011;19656;50.096;20.014;2024-02-15T00:13:05;55.50;;;25.50;;
33285;SDS011;19656;50.096;20.014;2024-02-15T00:18:09;53.00;;;25.10;;
33285;SDS011;19656;50.096;20.014;2024-02-15T00:23:12;59.80;;;25.90;;
33285;SDS011;19656;50.096;20.014;2024-02-15T00:28:16;65.30;;;26.60;;
33285;SDS011;19656;50.096;20.014;2024-02-15T00:33:19;51.70;;;25.90;;
33285;SDS011;19656;50.096;20.014;2024-02-15T00:38:23;48.30;;;25.30;;
33285;SDS011;19656;50.096;20.014;2024-02-15T00:43:26;50.30;;;24.80;;
33285;SDS011;19656;50.096;20.014;2024-02-15T00:48:30;52.90;;;26.00;;
33285;SDS011;19656;50.096;20.014;2024-02-15T00:53:34;54.20;;;24.70;;
33285;SDS011;19656;50.096;20.014;2024-02-15T00:58:37;53.90;;;25.90;;
33285;SDS011;19656;50.096;20.014;2024-02-15T01:03:40;48.00;;;24.60;;
33285;SDS011;19656;50.096;20.014;2024-02-15T01:08:43;52.60;;;26.30;;
33285;SDS011;19656;50.096;20.014;2024-02-15T01:13:47;56.60;;;24.10;;
33285;SDS011;19656;50.096;20.014;2024-02-15T01:18:50;44.80;;;20.70;;
33285;SDS011;19656;50.096;20.014;2024-02-15T01:23:53;34.90;;;18.90;;
33285;SDS011;19656;50.096;20.014;2024-02-15T01:28:56;35.20;;;18.90;;
33285;SDS011;19656;50.096;20.014;2024-02-15T01:34:00;37.80;;;18.40;;
33285;SDS011;19656;50.096;20.014;2024-02-15T01:39:03;30.50;;;16.90;;
33285;SDS011;19656;50.096;20.014;2024-02-15T01:44:06;33.10;;;17.90;;
33285;SDS011;19656;50.096;20.014;2024-02-15T01:49:10;36.00;;;17.30;;
33285;SDS011;19656;50.096;20.014;2024-02-15T01:54:14;33.30;;;16.60;;
33285;SDS011;19656;50.096;20.014;2024-02-15T01:59:22;32.80;;;17.50;;
33285;SDS011;19656;50.096;20.014;2024-02-15T02:04:25;29.80;;;17.50;;
33285;SDS011;19656;50.096;20.014;2024-02-15T02:09:29;33.00;;;17.80;;
33285;SDS011;19656;50.096;20.014;2024-02-15T02:14:32;36.70;;;19.70;;
33285;SDS011;19656;50.096;20.014;2024-02-15T02:19:35;40.50;;;19.60;;
33285;SDS011;19656;50.096;20.014;2024-02-15T02:24:54;37.50;;;20.00;;
33285;SDS011;19656;50.096;20.014;2024-02-15T02:30:12;39.00;;;19.50;;
33285;SDS011;19656;50.096;20.014;2024-02-15T02:35:25;42.20;;;21.40;;
33285;SDS011;19656;50.096;20.014;2024-02-15T02:40:29;42.60;;;22.10;;
33285;SDS011;19656;50.096;20.014;2024-02-15T02:45:32;44.50;;;24.10;;
33285;SDS011;19656;50.096;20.014;2024-02-15T02:50:35;50.50;;;21.40;;
33285;SDS011;19656;50.096;20.014;2024-02-15T02:55:40;42.20;;;21.20;;
33285;SDS011;19656;50.096;20.014;2024-02-15T03:00:44;40.40;;;20.90;;
33285;SDS011;19656;50.096;20.014;2024-02-15T03:05:47;43.20;;;21.60;;
33285;SDS011;19656;50.096;20.014;2024-02-15T03:10:51;42.80;;;21.90;;
33285;SDS011;19656;50.096;20.014;2024-02-15T03:15:54;44.20;;;21.60;;
33285;SDS011;19656;50.096;20.014;2024-02-15T03:20:57;45.00;;;21.20;;
33285;SDS011;19656;50.096;20.014;2024-02-15T03:26:01;45.30;;;22.40;;
33285;SDS011;19656;50.096;20.014;2024-02-15T03:31:07;40.60;;;21.00;;
33285;SDS011;19656;50.096;20.014;2024-02-15T03:36:10;39.20;;;20.60;;
33285;SDS011;19656;50.096;20.014;2024-02-15T03:41:14;37.20;;;20.50;;
33285;SDS011;19656;50.096;20.014;2024-02-15T03:46:17;36.80;;;19.80;;
33285;SDS011;19656;50.096;20.014;2024-02-15T03:51:21;44.40;;;21.30;;
33285;SDS011;19656;50.096;20.014;2024-02-15T03:56:26;54.90;;;22.30;;
33285;SDS011;19656;50.096;20.014;2024-02-15T04:01:30;57.90;;;22.70;;
33285;SDS011;19656;50.096;20.014;2024-02-15T04:06:37;55.30;;;23.90;;
33285;SDS011;19656;50.096;20.014;2024-02-15T04:11:41;52.90;;;23.60;;
33285;SDS011;19656;50.096;20.014;2024-02-15T04:16:44;51.70;;;24.60;;
33285;SDS011;19656;50.096;20.014;2024-02-15T04:21:48;54.70;;;24.30;;
33285;SDS011;19656;50.096;20.014;2024-02-15T04:26:51;58.40;;;24.60;;
33285;SDS011;19656;50.096;20.014;2024-02-15T04:31:55;62.30;;;25.20;;
33285;SDS011;19656;50.096;20.014;2024-02-15T04:37:00;223.70;;;155.60;;
33285;SDS011;19656;50.096;20.014;2024-02-15T04:42:09;175.40;;;107.10;;
33285;SDS011;19656;50.096;20.014;2024-02-15T04:47:14;102.70;;;57.20;;
33285;SDS011;19656;50.096;20.014;2024-02-15T04:52:17;51.00;;;26.40;;
33285;SDS011;19656;50.096;20.014;2024-02-15T04:57:21;52.20;;;24.50;;
33285;SDS011;19656;50.096;20.014;2024-02-15T05:02:24;44.40;;;23.20;;
33285;SDS011;19656;50.096;20.014;2024-02-15T05:07:28;44.10;;;23.60;;
33285;SDS011;19656;50.096;20.014;2024-02-15T05:12:31;155.90;;;107.40;;
33285;SDS011;19656;50.096;20.014;2024-02-15T05:17:38;55.50;;;30.80;;
33285;SDS011;19656;50.096;20.014;2024-02-15T05:22:44;45.90;;;23.90;;
33285;SDS011;19656;50.096;20.014;2024-02-15T05:27:53;40.90;;;22.00;;
33285;SDS011;19656;50.096;20.014;2024-02-15T05:38:04;39.40;;;23.10;;
33285;SDS011;19656;50.096;20.014;2024-02-15T05:43:09;39.70;;;23.60;;
33285;SDS011;19656;50.096;20.014;2024-02-15T05:48:12;72.60;;;45.90;;
33285;SDS011;19656;50.096;20.014;2024-02-15T05:53:16;41.20;;;23.20;;
33285;SDS011;19656;50.096;20.014;2024-02-15T05:58:20;43.50;;;23.80;;
33285;SDS011;19656;50.096;20.014;2024-02-15T06:03:24;48.50;;;24.10;;
33285;SDS011;19656;50.096;20.014;2024-02-15T06:08:29;47.20;;;23.80;;
33285;SDS011;19656;50.096;20.014;2024-02-15T06:13:33;50.80;;;24.10;;
33285;SDS011;19656;50.096;20.014;2024-02-15T06:18:36;55.90;;;23.30;;
33285;SDS011;19656;50.096;20.014;2024-02-15T06:23:41;50.40;;;22.50;;
33285;SDS011;19656;50.096;20.014;2024-02-15T06:28:44;55.80;;;24.00;;
33285;SDS011;19656;50.096;20.014;2024-02-15T06:34:05;59.90;;;23.50;;
33285;SDS011;19656;50.096;20.014;2024-02-15T06:39:28;57.40;;;24.40;;
33285;SDS011;19656;50.096;20.014;2024-02-15T06:44:49;48.80;;;23.10;;
33285;SDS011;19656;50.096;20.014;2024-02-15T06:49:53;47.90;;;22.60;;
33285;SDS011;19656;50.096;20.014;2024-02-15T06:54:57;53.80;;;23.30;;
33285;SDS011;19656;50.096;20.014;2024-02-15T07:00:03;57.70;;;24.10;;
33285;SDS011;19656;50.096;20.014;2024-02-15T07:05:12;49.30;;;23.50;;
33285;SDS011;19656;50.096;20.014;2024-02-15T07:10:15;53.50;;;22.50;;
33285;SDS011;19656;50.096;20.014;2024-02-15T07:20:24;57.10;;;23.20;;
33285;SDS011;19656;50.096;20.014;2024-02-15T07:25:28;57.30;;;24.90;;
33285;SDS011;19656;50.096;20.014;2024-02-15T07:30:31;63.30;;;27.90;;
33285;SDS011;19656;50.096;20.014;2024-02-15T07:35:35;71.30;;;32.00;;
33285;SDS011;19656;50.096;20.014;2024-02-15T07:40:38;62.00;;;31.50;;
33285;SDS011;19656;50.096;20.014;2024-02-15T07:45:42;67.90;;;30.30;;
33285;SDS011;19656;50.096;20.014;2024-02-15T07:50:45;65.30;;;30.50;;
33285;SDS011;19656;50.096;20.014;2024-02-15T07:55:49;63.80;;;27.80;;
33285;SDS011;19656;50.096;20.014;2024-02-15T08:00:53;62.20;;;27.70;;
33285;SDS011;19656;50.096;20.014;2024-02-15T08:05:56;55.20;;;27.20;;
33285;SDS011;19656;50.096;20.014;2024-02-15T08:11:01;90.70;;;28.30;;
33285;SDS011;19656;50.096;20.014;2024-02-15T08:16:05;72.00;;;27.60;;
33285;SDS011;19656;50.096;20.014;2024-02-15T08:21:08;57.50;;;28.00;;
33285;SDS011;19656;50.096;20.014;2024-02-15T08:26:12;67.90;;;29.00;;
33285;SDS011;19656;50.096;20.014;2024-02-15T08:31:15;101.30;;;28.30;;
33285;SDS011;19656;50.096;20.014;2024-02-15T08:36:19;120.80;;;31.60;;
33285;SDS011;19656;50.096;20.014;2024-02-15T08:41:23;90.60;;;30.10;;
33285;SDS011;19656;50.096;20.014;2024-02-15T08:46:29;80.80;;;31.10;;
33285;SDS011;19656;50.096;20.014;2024-02-15T08:51:34;83.30;;;29.60;;
33285;SDS011;19656;50.096;20.014;2024-02-15T08:56:37;70.60;;;28.20;;
33285;SDS011;19656;50.096;20.014;2024-02-15T09:01:40;75.20;;;27.20;;
33285;SDS011;19656;50.096;20.014;2024-02-15T09:06:46;68.10;;;26.40;;
33285;SDS011;19656;50.096;20.014;2024-02-15T09:11:49;71.00;;;26.50;;
33285;SDS011;19656;50.096;20.014;2024-02-15T09:16:52;83.20;;;27.70;;
33285;SDS011;19656;50.096;20.014;2024-02-15T09:21:56;63.20;;;26.70;;
33285;SDS011;19656;50.096;20.014;2024-02-15T09:26:59;64.60;;;26.50;;
33285;SDS011;19656;50.096;20.014;2024-02-15T09:32:05;68.90;;;28.50;;
33285;SDS011;19656;50.096;20.014;2024-02-15T09:37:09;77.90;;;29.10;;
33285;SDS011;19656;50.096;20.014;2024-02-15T09:42:12;69.80;;;27.70;;
33285;SDS011;19656;50.096;20.014;2024-02-15T09:47:17;78.30;;;33.60;;
33285;SDS011;19656;50.096;20.014;2024-02-15T09:52:22;64.90;;;26.80;;
33285;SDS011;19656;50.096;20.014;2024-02-15T09:57:25;60.70;;;26.20;;
33285;SDS011;19656;50.096;20.014;2024-02-15T10:02:31;60.90;;;24.50;;
33285;SDS011;19656;50.096;20.014;2024-02-15T10:07:34;55.60;;;24.50;;
33285;SDS011;19656;50.096;20.014;2024-02-15T10:12:38;65.10;;;24.50;;
33285;SDS011;19656;50.096;20.014;2024-02-15T10:17:41;48.90;;;23.00;;
33285;SDS011;19656;50.096;20.014;2024-02-15T10:33:19;57.30;;;25.00;;
33285;SDS011;19656;50.096;20.014;2024-02-15T10:38:28;40.70;;;19.60;;
33285;SDS011;19656;50.096;20.014;2024-02-15T10:43:34;21.30;;;10.30;;
33285;SDS011;19656;50.096;20.014;2024-02-15T10:48:41;21.60;;;10.80;;
33285;SDS011;19656;50.096;20.014;2024-02-15T10:59:02;15.40;;;9.70;;
33285;SDS011;19656;50.096;20.014;2024-02-15T11:04:14;12.00;;;5.50;;
33285;SDS011;19656;50.096;20.014;2024-02-15T11:09:18;9.60;;;5.10;;
33285;SDS011;19656;50.096;20.014;2024-02-15T11:14:22;11.50;;;5.60;;
33285;SDS011;19656;50.096;20.014;2024-02-15T11:24:45;15.00;;;8.60;;
33285;SDS011;19656;50.096;20.014;2024-02-15T11:29:53;14.20;;;7.90;;
33285;SDS011;19656;50.096;20.014;2024-02-15T11:35:15;13.20;;;8.10;;
33285;SDS011;19656;50.096;20.014;2024-02-15T11:40:23;12.40;;;6.80;;
33285;SDS011;19656;50.096;20.014;2024-02-15T11:45:32;10.00;;;7.00;;
33285;SDS011;19656;50.096;20.014;2024-02-15T11:55:42;13.00;;;7.30;;
33285;SDS011;19656;50.096;20.014;2024-02-15T12:00:45;14.10;;;6.50;;
33285;SDS011;19656;50.096;20.014;2024-02-15T12:06:07;16.60;;;7.40;;
33285;SDS011;19656;50.096;20.014;2024-02-15T12:11:30;13.50;;;6.00;;
33285;SDS011;19656;50.096;20.014;2024-02-15T12:17:03;12.90;;;5.80;;
33285;SDS011;19656;50.096;20.014;2024-02-15T12:22:43;12.70;;;6.10;;
33285;SDS011;19656;50.096;20.014;2024-02-15T12:27:53;12.10;;;6.00;;
33285;SDS011;19656;50.096;20.014;2024-02-15T12:33:08;14.00;;;6.70;;
33285;SDS011;19656;50.096;20.014;2024-02-15T12:38:16;15.30;;;6.70;;
33285;SDS011;19656;50.096;20.014;2024-02-15T12:43:20;8.30;;;5.20;;
33285;SDS011;19656;50.096;20.014;2024-02-15T12:48:23;12.10;;;5.10;;
33285;SDS011;19656;50.096;20.014;2024-02-15T12:53:27;8.40;;;5.80;;
33285;SDS011;19656;50.096;20.014;2024-02-15T12:58:31;12.80;;;6.00;;
33285;SDS011;19656;50.096;20.014;2024-02-15T13:03:34;11.10;;;5.10;;
33285;SDS011;19656;50.096;20.014;2024-02-15T13:08:38;8.40;;;4.20;;
33285;SDS011;19656;50.096;20.014;2024-02-15T13:13:41;11.30;;;4.10;;
33285;SDS011;19656;50.096;20.014;2024-02-15T13:18:45;7.80;;;3.50;;
33285;SDS011;19656;50.096;20.014;2024-02-15T13:23:50;13.00;;;3.80;;
33285;SDS011;19656;50.096;20.014;2024-02-15T13:28:54;9.60;;;3.70;;
33285;SDS011;19656;50.096;20.014;2024-02-15T13:33:57;10.50;;;3.90;;
33285;SDS011;19656;50.096;20.014;2024-02-15T13:39:01;7.20;;;3.70;;
33285;SDS011;19656;50.096;20.014;2024-02-15T13:44:07;6.50;;;3.50;;
33285;SDS011;19656;50.096;20.014;2024-02-15T13:49:11;6.10;;;3.90;;
33285;SDS011;19656;50.096;20.014;2024-02-15T13:54:30;11.20;;;4.20;;
33285;SDS011;19656;50.096;20.014;2024-02-15T13:59:34;9.40;;;4.10;;
33285;SDS011;19656;50.096;20.014;2024-02-15T14:04:37;6.00;;;3.30;;
33285;SDS011;19656;50.096;20.014;2024-02-15T14:09:41;7.80;;;3.60;;
33285;SDS011;19656;50.096;20.014;2024-02-15T14:14:44;7.50;;;3.70;;
33285;SDS011;19656;50.096;20.014;2024-02-15T14:19:49;6.60;;;3.50;;
33285;SDS011;19656;50.096;20.014;2024-02-15T14:24:53;7.00;;;3.20;;
33285;SDS011;19656;50.096;20.014;2024-02-15T14:29:56;7.50;;;3.40;;
33285;SDS011;19656;50.096;20.014;2024-02-15T14:35:20;7.90;;;3.50;;
33285;SDS011;19656;50.096;20.014;2024-02-15T14:40:24;15.80;;;10.50;;
33285;SDS011;19656;50.096;20.014;2024-02-15T14:45:29;6.00;;;3.30;;
33285;SDS011;19656;50.096;20.014;2024-02-15T14:50:38;11.50;;;3.50;;
33285;SDS011;19656;50.096;20.014;2024-02-15T14:55:42;7.70;;;3.40;;
33285;SDS011;19656;50.096;20.014;2024-02-15T15:00:49;7.30;;;3.70;;
33285;SDS011;19656;50.096;20.014;2024-02-15T15:05:53;8.90;;;3.90;;
33285;SDS011;19656;50.096;20.014;2024-02-15T15:11:17;9.50;;;3.50;;
33285;SDS011;19656;50.096;20.014;2024-02-15T15:16:38;9.90;;;4.50;;
33285;SDS011;19656;50.096;20.014;2024-02-15T15:21:42;164.60;;;93.50;;
33285;SDS011;19656;50.096;20.014;2024-02-15T15:26:46;13.40;;;5.60;;
33285;SDS011;19656;50.096;20.014;2024-02-15T15:31:50;10.60;;;4.50;;
33285;SDS011;19656;50.096;20.014;2024-02-15T15:36:54;65.20;;;42.00;;
33285;SDS011;19656;50.096;20.014;2024-02-15T15:41:58;12.50;;;4.40;;
33285;SDS011;19656;50.096;20.014;2024-02-15T15:47:01;12.60;;;3.90;;
33285;SDS011;19656;50.096;20.014;2024-02-15T15:52:05;10.30;;;4.00;;
33285;SDS011;19656;50.096;20.014;2024-02-15T15:57:09;12.30;;;4.20;;
33285;SDS011;19656;50.096;20.014;2024-02-15T16:02:12;11.30;;;4.10;;
33285;SDS011;19656;50.096;20.014;2024-02-15T16:07:15;13.70;;;4.30;;
33285;SDS011;19656;50.096;20.014;2024-02-15T16:12:19;17.00;;;5.90;;
33285;SDS011;19656;50.096;20.014;2024-02-15T16:17:24;11.30;;;5.90;;
33285;SDS011;19656;50.096;20.014;2024-02-15T16:22:27;14.70;;;6.20;;
33285;SDS011;19656;50.096;20.014;2024-02-15T16:27:33;18.10;;;6.70;;
33285;SDS011;19656;50.096;20.014;2024-02-15T16:32:37;22.80;;;7.30;;
33285;SDS011;19656;50.096;20.014;2024-02-15T16:37:41;20.40;;;7.40;;
33285;SDS011;19656;50.096;20.014;2024-02-15T16:42:45;55.20;;;36.50;;
33285;SDS011;19656;50.096;20.014;2024-02-15T16:47:51;18.30;;;9.60;;
33285;SDS011;19656;50.096;20.014;2024-02-15T16:53:03;19.20;;;9.60;;
33285;SDS011;19656;50.096;20.014;2024-02-15T16:58:07;20.80;;;9.00;;
33285;SDS011;19656;50.096;20.014;2024-02-15T17:03:13;24.20;;;9.80;;
33285;SDS011;19656;50.096;20.014;2024-02-15T17:08:18;29.90;;;16.60;;
33285;SDS011;19656;50.096;20.014;2024-02-15T17:13:22;22.80;;;11.00;;
33285;SDS011;19656;50.096;20.014;2024-02-15T17:18:26;20.10;;;11.00;;
33285;SDS011;19656;50.096;20.014;2024-02-15T17:23:30;27.20;;;12.30;;
33285;SDS011;19656;50.096;20.014;2024-02-15T17:28:33;28.10;;;12.20;;
33285;SDS011;19656;50.096;20.014;2024-02-15T17:33:37;26.00;;;12.50;;
33285;SDS011;19656;50.096;20.014;2024-02-15T17:38:42;26.70;;;12.90;;
33285;SDS011;19656;50.096;20.014;2024-02-15T17:43:46;26.80;;;13.70;;
33285;SDS011;19656;50.096;20.014;2024-02-15T17:48:50;30.60;;;15.20;;
33285;SDS011;19656;50.096;20.014;2024-02-15T17:53:53;33.80;;;16.40;;
33285;SDS011;19656;50.096;20.014;2024-02-15T17:58:57;35.90;;;17.20;;
33285;SDS011;19656;50.096;20.014;2024-02-15T18:04:01;38.10;;;17.20;;
33285;SDS011;19656;50.096;20.014;2024-02-15T18:09:04;33.70;;;18.10;;
33285;SDS011;19656;50.096;20.014;2024-02-15T18:14:09;101.40;;;66.10;;
33285;SDS011;19656;50.096;20.014;2024-02-15T18:19:12;39.60;;;23.00;;
33285;SDS011;19656;50.096;20.014;2024-02-15T18:24:16;62.60;;;36.40;;
33285;SDS011;19656;50.096;20.014;2024-02-15T18:29:19;42.90;;;22.50;;
33285;SDS011;19656;50.096;20.014;2024-02-15T18:34:22;39.00;;;22.40;;
33285;SDS011;19656;50.096;20.014;2024-02-15T18:39:26;80.30;;;60.40;;
33285;SDS011;19656;50.096;20.014;2024-02-15T18:49:35;37.90;;;22.10;;
33285;SDS011;19656;50.096;20.014;2024-02-15T18:54:45;33.80;;;20.90;;
33285;SDS011;19656;50.096;20.014;2024-02-15T18:59:48;39.20;;;20.70;;
33285;SDS011;19656;50.096;20.014;2024-02-15T19:04:52;34.00;;;20.10;;
33285;SDS011;19656;50.096;20.014;2024-02-15T19:09:55;34.30;;;19.40;;
33285;SDS011;19656;50.096;20.014;2024-02-15T19:14:59;35.70;;;19.90;;
33285;SDS011;19656;50.096;20.014;2024-02-15T19:20:07;37.30;;;19.80;;
33285;SDS011;19656;50.096;20.014;2024-02-15T19:25:14;35.10;;;20.20;;
33285;SDS011;19656;50.096;20.014;2024-02-15T19:30:24;40.10;;;21.50;;
33285;SDS011;19656;50.096;20.014;2024-02-15T19:35:28;100.60;;;64.80;;
33285;SDS011;19656;50.096;20.014;2024-02-15T19:40:33;40.30;;;24.50;;
33285;SDS011;19656;50.096;20.014;2024-02-15T19:45:38;41.10;;;22.20;;
33285;SDS011;19656;50.096;20.014;2024-02-15T19:50:44;38.10;;;22.90;;
33285;SDS011;19656;50.096;20.014;2024-02-15T19:55:48;37.90;;;21.70;;
33285;SDS011;19656;50.096;20.014;2024-02-15T20:00:51;38.40;;;22.40;;
33285;SDS011;19656;50.096;20.014;2024-02-15T20:05:55;36.70;;;22.10;;
33285;SDS011;19656;50.096;20.014;2024-02-15T20:11:02;38.20;;;23.10;;
33285;SDS011;19656;50.096;20.014;2024-02-15T20:16:05;39.40;;;23.20;;
33285;SDS011;19656;50.096;20.014;2024-02-15T20:21:09;42.00;;;22.70;;
33285;SDS011;19656;50.096;20.014;2024-02-15T20:26:15;39.10;;;22.30;;
33285;SDS011;19656;50.096;20.014;2024-02-15T20:31:18;39.20;;;23.20;;
33285;SDS011;19656;50.096;20.014;2024-02-15T20:36:22;38.20;;;22.50;;
33285;SDS011;19656;50.096;20.014;2024-02-15T20:41:26;37.50;;;22.70;;
33285;SDS011;19656;50.096;20.014;2024-02-15T20:46:30;37.10;;;22.50;;
33285;SDS011;19656;50.096;20.014;2024-02-15T20:51:35;40.50;;;22.40;;
33285;SDS011;19656;50.096;20.014;2024-02-15T20:56:40;39.80;;;23.00;;
33285;SDS011;19656;50.096;20.014;2024-02-15T21:01:46;38.70;;;23.10;;
33285;SDS011;19656;50.096;20.014;2024-02-15T21:06:50;43.40;;;24.00;;
33285;SDS011;19656;50.096;20.014;2024-02-15T21:11:55;45.80;;;22.90;;
33285;SDS011;19656;50.096;20.014;2024-02-15T21:16:58;40.00;;;22.80;;
33285;SDS011;19656;50.096;20.014;2024-02-15T21:22:01;45.10;;;22.80;;
33285;SDS011;19656;50.096;20.014;2024-02-15T21:27:05;43.40;;;24.20;;
33285;SDS011;19656;50.096;20.014;2024-02-15T21:32:08;41.80;;;24.30;;
33285;SDS011;19656;50.096;20.014;2024-02-15T21:37:16;42.90;;;23.20;;
33285;SDS011;19656;50.096;20.014;2024-02-15T21:42:26;42.60;;;23.90;;
33285;SDS011;19656;50.096;20.014;2024-02-15T21:47:30;43.50;;;24.40;;
33285;SDS011;19656;50.096;20.014;2024-02-15T21:52:34;41.80;;;24.90;;
33285;SDS011;19656;50.096;20.014;2024-02-15T21:57:37;48.30;;;23.20;;
33285;SDS011;19656;50.096;20.014;2024-02-15T22:02:40;45.90;;;22.50;;
33285;SDS011;19656;50.096;20.014;2024-02-15T22:07:44;60.80;;;23.70;;
33285;SDS011;19656;50.096;20.014;2024-02-15T22:12:47;59.30;;;24.50;;
33285;SDS011;19656;50.096;20.014;2024-02-15T22:17:50;57.60;;;26.00;;
33285;SDS011;19656;50.096;20.014;2024-02-15T22:22:58;66.40;;;26.20;;
33285;SDS011;19656;50.096;20.014;2024-02-15T22:28:03;63.10;;;24.90;;
33285;SDS011;19656;50.096;20.014;2024-02-15T22:33:07;55.20;;;24.70;;
33285;SDS011;19656;50.096;20.014;2024-02-15T22:38:10;60.10;;;24.90;;
33285;SDS011;19656;50.096;20.014;2024-02-15T22:43:13;52.70;;;24.30;;
33285;SDS011;19656;50.096;20.014;2024-02-15T22:48:17;50.80;;;24.40;;
33285;SDS011;19656;50.096;20.014;2024-02-15T22:53:20;49.20;;;24.40;;
33285;SDS011;19656;50.096;20.014;2024-02-15T22:58:25;41.40;;;23.10;;
33285;SDS011;19656;50.096;20.014;2024-02-15T23:03:29;48.20;;;24.50;;
33285;SDS011;19656;50.096;20.014;2024-02-15T23:08:33;46.80;;;25.30;;
33285;SDS011;19656;50.096;20.014;2024-02-15T23:13:36;45.80;;;24.90;;
33285;SDS011;19656;50.096;20.014;2024-02-15T23:18:43;48.50;;;25.00;;
33285;SDS011;19656;50.096;20.014;2024-02-15T23:23:47;48.00;;;25.30;;
33285;SDS011;19656;50.096;20.014;2024-02-15T23:28:50;44.40;;;24.40;;
33285;SDS011;19656;50.096;20.014;2024-02-15T23:33:53;38.30;;;24.50;;
33285;SDS011;19656;50.096;20.014;2024-02-15T23:38:57;53.80;;;26.50;;
33285;SDS011;19656;50.096;20.014;2024-02-15T23:44:22;58.10;;;28.20;;
33285;SDS011;19656;50.096;20.014;2024-02-15T23:49:32;48.00;;;24.20;;
33285;SDS011;19656;50.096;20.014;2024-02-15T23:54:36;50.70;;;27.40;;
33285;SDS011;19656;50.096;20.014;2024-02-15T23:59:40;51.50;;;28.60;;
